createdAt,value
2019-05-21T00:00:16.855Z,15.10
2019-05-21T00:02:45.496Z,15.10
2019-05-21T00:05:14.261Z,15.10
2019-05-21T00:07:42.956Z,15.10
2019-05-21T00:10:12.218Z,15.10
2019-05-21T00:12:40.922Z,15.10
2019-05-21T00:15:10.159Z,15.10
2019-05-21T00:17:38.830Z,15.20
2019-05-21T00:20:07.662Z,15.10
2019-05-21T00:22:36.561Z,15.10
2019-05-21T00:25:06.326Z,15.10
2019-05-21T00:27:34.966Z,15.20
2019-05-21T00:30:39.740Z,15.10
2019-05-21T00:33:44.796Z,15.10
2019-05-21T00:36:51.813Z,15.10
2019-05-21T00:39:56.896Z,15.10
2019-05-21T00:42:31.807Z,15.10
2019-05-21T00:45:00.447Z,15.10
2019-05-21T00:47:29.142Z,15.10
2019-05-21T00:49:57.779Z,15.10
2019-05-21T00:52:26.478Z,15.10
2019-05-21T00:54:55.199Z,15.10
2019-05-21T00:57:23.869Z,15.00
2019-05-21T00:59:52.565Z,15.10
2019-05-21T01:02:21.205Z,15.00
2019-05-21T01:05:00.182Z,15.00
2019-05-21T01:07:20.230Z,14.90
2019-05-21T01:09:49.332Z,14.90
2019-05-21T01:12:18.019Z,14.90
2019-05-21T01:14:46.700Z,14.90
2019-05-21T01:17:15.327Z,14.90
2019-05-21T01:19:43.941Z,14.90
2019-05-21T01:22:12.643Z,14.90
2019-05-21T01:24:41.412Z,14.90
2019-05-21T01:27:10.116Z,14.80
2019-05-21T01:29:38.783Z,14.80
2019-05-21T01:32:07.566Z,14.80
2019-05-21T01:34:36.299Z,14.80
2019-05-21T01:37:05.016Z,14.80
2019-05-21T01:39:33.686Z,14.80
2019-05-21T01:42:02.379Z,14.70
2019-05-21T01:44:31.199Z,14.70
2019-05-21T01:46:59.877Z,14.60
2019-05-21T01:49:28.571Z,14.60
2019-05-21T01:51:57.194Z,14.60
2019-05-21T01:54:25.931Z,14.50
2019-05-21T01:56:54.575Z,14.50
2019-05-21T01:59:23.206Z,14.50
2019-05-21T02:01:51.973Z,14.50
2019-05-21T02:04:20.631Z,14.50
2019-05-21T02:06:49.494Z,14.40
2019-05-21T02:09:18.175Z,14.40
2019-05-21T02:11:46.877Z,14.40
2019-05-21T02:14:15.583Z,14.40
2019-05-21T02:16:44.210Z,14.40
2019-05-21T02:19:12.817Z,14.30
2019-05-21T02:21:41.538Z,14.30
2019-05-21T02:24:10.308Z,14.30
2019-05-21T02:26:39.046Z,14.30
2019-05-21T02:29:07.694Z,14.30
2019-05-21T02:31:36.411Z,14.30
2019-05-21T02:34:05.076Z,14.20
2019-05-21T02:36:33.893Z,14.20
2019-05-21T02:39:02.663Z,14.20
2019-05-21T02:41:31.350Z,14.10
2019-05-21T02:44:00.025Z,14.10
2019-05-21T02:46:28.737Z,14.10
2019-05-21T02:48:57.605Z,14.00
2019-05-21T02:51:26.506Z,14.00
2019-05-21T02:53:55.242Z,13.90
2019-05-21T02:56:23.884Z,13.90
2019-05-21T02:58:52.621Z,13.90
2019-05-21T03:01:25.679Z,13.90
2019-05-21T03:03:54.304Z,13.80
2019-05-21T03:06:23.007Z,13.80
2019-05-21T03:08:51.700Z,13.80
2019-05-21T03:11:20.309Z,13.80
2019-05-21T03:13:49.016Z,13.70
2019-05-21T03:16:17.624Z,13.70
2019-05-21T03:18:46.319Z,13.70
2019-05-21T03:21:15.011Z,13.70
2019-05-21T03:23:43.681Z,13.70
2019-05-21T03:26:12.372Z,13.60
2019-05-21T03:28:41.042Z,13.60
2019-05-21T03:31:09.688Z,13.60
2019-05-21T03:33:38.411Z,13.50
2019-05-21T03:36:07.142Z,13.50
2019-05-21T03:38:35.780Z,13.50
2019-05-21T03:41:04.440Z,13.50
2019-05-21T03:43:33.151Z,13.50
2019-05-21T03:46:01.934Z,13.50
2019-05-21T03:48:30.645Z,13.50
2019-05-21T03:50:59.400Z,13.50
2019-05-21T03:53:28.040Z,13.50
2019-05-21T03:55:56.719Z,13.50
2019-05-21T03:58:25.414Z,13.50
2019-05-21T04:00:54.025Z,13.50
2019-05-21T04:03:22.733Z,13.50
2019-05-21T04:05:51.368Z,13.50
2019-05-21T04:08:20.468Z,13.50
2019-05-21T04:10:49.191Z,13.50
2019-05-21T04:13:17.925Z,13.60
2019-05-21T04:15:57.202Z,13.60
2019-05-21T04:18:30.164Z,13.70
2019-05-21T04:20:58.808Z,13.80
2019-05-21T04:23:27.402Z,13.80
2019-05-21T04:25:56.113Z,13.90
2019-05-21T04:28:24.838Z,13.90
2019-05-21T04:30:53.540Z,13.90
2019-05-21T04:33:22.290Z,13.90
2019-05-21T04:35:51.063Z,13.90
2019-05-21T04:38:19.755Z,13.90
2019-05-21T04:40:48.363Z,13.90
2019-05-21T04:43:17.152Z,14.00
2019-05-21T04:45:45.766Z,14.00
2019-05-21T04:48:14.471Z,14.00
2019-05-21T04:50:43.269Z,14.10
2019-05-21T04:53:11.968Z,14.10
2019-05-21T04:55:40.626Z,14.10
2019-05-21T04:58:09.284Z,14.10
2019-05-21T05:00:37.981Z,14.20
2019-05-21T05:03:06.613Z,14.20
2019-05-21T05:05:35.314Z,14.20
2019-05-21T05:08:04.743Z,14.30
2019-05-21T05:10:33.475Z,14.30
2019-05-21T05:13:02.210Z,14.40
2019-05-21T05:15:30.805Z,14.40
2019-05-21T05:17:59.428Z,14.40
2019-05-21T05:20:28.023Z,14.50
2019-05-21T05:22:56.718Z,14.50
2019-05-21T05:25:25.335Z,14.50
2019-05-21T05:27:54.039Z,14.50
2019-05-21T05:30:22.755Z,14.60
2019-05-21T05:32:51.468Z,14.70
2019-05-21T05:35:20.173Z,14.80
2019-05-21T05:37:49.273Z,14.80
2019-05-21T05:40:18.407Z,14.80
2019-05-21T05:42:47.145Z,14.90
2019-05-21T05:45:16.378Z,14.90
2019-05-21T05:47:45.131Z,15.00
2019-05-21T05:50:15.391Z,15.10
2019-05-21T05:52:44.078Z,15.10
2019-05-21T05:55:12.983Z,15.10
2019-05-21T05:57:41.715Z,15.10
2019-05-21T06:00:11.632Z,15.10
2019-05-21T06:02:40.297Z,15.20
2019-05-21T06:05:09.488Z,15.30
2019-05-21T06:07:38.207Z,15.40
2019-05-21T06:10:06.978Z,15.40
2019-05-21T06:12:35.643Z,15.50
2019-05-21T06:15:06.321Z,15.50
2019-05-21T06:17:34.942Z,15.60
2019-05-21T06:20:04.741Z,15.60
2019-05-21T06:22:33.428Z,15.70
2019-05-21T06:25:02.329Z,15.60
2019-05-21T06:27:32.434Z,15.70
2019-05-21T06:30:01.156Z,15.70
2019-05-21T06:32:29.836Z,15.80
2019-05-21T06:34:58.445Z,15.90
2019-05-21T06:37:27.136Z,16.00
2019-05-21T06:39:55.735Z,16.00
2019-05-21T06:42:24.372Z,16.10
2019-05-21T06:44:52.984Z,16.20
2019-05-21T06:47:21.622Z,16.30
2019-05-21T06:49:50.284Z,16.30
2019-05-21T06:52:18.912Z,16.20
2019-05-21T06:54:47.519Z,16.20
2019-05-21T06:57:16.245Z,16.30
2019-05-21T06:59:47.886Z,16.40
2019-05-21T07:02:16.547Z,16.30
2019-05-21T07:04:45.307Z,16.40
2019-05-21T07:07:14.032Z,16.40
2019-05-21T07:09:42.696Z,16.40
2019-05-21T07:12:11.327Z,16.50
2019-05-21T07:14:40.045Z,16.50
2019-05-21T07:17:08.824Z,16.50
2019-05-21T07:19:37.487Z,16.50
2019-05-21T07:22:12.726Z,16.60
2019-05-21T07:24:36.627Z,16.60
2019-05-21T07:27:05.309Z,16.70
2019-05-21T07:29:33.919Z,16.70
2019-05-21T07:32:02.574Z,16.70
2019-05-21T07:34:31.313Z,16.80
2019-05-21T07:37:00.092Z,16.80
2019-05-21T07:39:28.723Z,16.80
2019-05-21T07:41:57.339Z,16.90
2019-05-21T07:44:26.051Z,16.90
2019-05-21T07:46:54.750Z,17.00
2019-05-21T07:49:23.345Z,17.00
2019-05-21T07:51:52.053Z,17.10
2019-05-21T07:54:20.723Z,17.10
2019-05-21T07:56:49.474Z,17.20
2019-05-21T07:59:18.167Z,17.30
2019-05-21T08:01:46.789Z,17.40
2019-05-21T08:04:15.432Z,17.50
2019-05-21T08:06:44.295Z,17.60
2019-05-21T08:09:14.602Z,17.70
2019-05-21T08:11:46.615Z,18.00
2019-05-21T08:14:13.719Z,18.20
2019-05-21T08:16:42.649Z,18.40
2019-05-21T08:19:11.519Z,18.60
2019-05-21T08:21:40.262Z,18.70
2019-05-21T08:24:08.943Z,18.70
2019-05-21T08:26:37.557Z,18.60
2019-05-21T08:29:06.250Z,18.40
2019-05-21T08:31:34.938Z,18.40
2019-05-21T08:34:03.873Z,18.40
2019-05-21T08:36:32.522Z,18.40
2019-05-21T08:39:01.184Z,18.50
2019-05-21T08:41:29.859Z,18.50
2019-05-21T08:43:58.487Z,18.70
2019-05-21T08:46:27.195Z,19.00
2019-05-21T08:48:55.885Z,19.20
2019-05-21T08:51:24.568Z,19.30
2019-05-21T08:53:53.262Z,19.50
2019-05-21T08:56:21.907Z,19.70
2019-05-21T08:58:50.604Z,19.80
2019-05-21T09:01:19.333Z,19.80
2019-05-21T09:03:47.976Z,20.00
2019-05-21T09:06:16.681Z,20.00
2019-05-21T09:08:45.411Z,20.10
2019-05-21T09:11:14.060Z,20.10
2019-05-21T09:13:42.762Z,20.20
2019-05-21T09:16:11.434Z,20.20
2019-05-21T09:18:40.133Z,20.10
2019-05-21T09:21:08.891Z,20.20
2019-05-21T09:23:37.531Z,20.20
2019-05-21T09:26:06.258Z,20.10
2019-05-21T09:28:34.944Z,19.90
2019-05-21T09:31:03.652Z,19.90
2019-05-21T09:33:32.245Z,19.90
2019-05-21T09:36:00.839Z,19.80
2019-05-21T09:38:29.574Z,19.90
2019-05-21T09:40:58.372Z,20.10
2019-05-21T09:43:27.037Z,20.20
2019-05-21T09:45:55.718Z,20.30
2019-05-21T09:48:24.386Z,20.30
2019-05-21T09:50:53.089Z,20.30
2019-05-21T09:53:21.766Z,20.30
2019-05-21T09:55:50.466Z,20.40
2019-05-21T09:58:20.720Z,20.40
2019-05-21T10:01:09.495Z,20.30
2019-05-21T10:03:42.281Z,20.20
2019-05-21T10:06:11.058Z,20.20
2019-05-21T10:08:39.771Z,20.20
2019-05-21T10:11:08.431Z,20.20
2019-05-21T10:13:37.102Z,20.20
2019-05-21T10:16:05.743Z,20.30
2019-05-21T10:18:34.396Z,20.20
2019-05-21T10:21:03.123Z,20.30
2019-05-21T10:23:31.752Z,20.30
2019-05-21T10:26:00.442Z,20.40
2019-05-21T10:28:29.150Z,20.50
2019-05-21T10:30:57.831Z,20.70
2019-05-21T10:33:26.464Z,20.80
2019-05-21T10:35:55.181Z,20.80
2019-05-21T10:38:23.888Z,20.80
2019-05-21T10:40:52.677Z,20.60
2019-05-21T10:43:21.451Z,20.60
2019-05-21T10:45:50.100Z,20.60
2019-05-21T10:48:18.697Z,20.50
2019-05-21T10:50:47.343Z,20.60
2019-05-21T10:53:16.131Z,20.90
2019-05-21T10:55:44.760Z,21.10
2019-05-21T10:58:13.544Z,21.20
2019-05-21T11:00:42.840Z,21.20
2019-05-21T11:03:13.114Z,21.40
2019-05-21T11:05:43.500Z,21.60
2019-05-21T11:08:23.437Z,21.70
2019-05-21T11:10:42.562Z,21.80
2019-05-21T11:13:11.228Z,21.90
2019-05-21T11:15:39.994Z,21.80
2019-05-21T11:18:11.146Z,21.90
2019-05-21T11:20:38.940Z,22.10
2019-05-21T11:23:07.600Z,22.20
2019-05-21T11:25:36.283Z,22.20
2019-05-21T11:28:06.241Z,22.10
2019-05-21T11:30:35.193Z,21.80
2019-05-21T11:33:03.970Z,21.60
2019-05-21T11:35:35.635Z,21.40
2019-05-21T11:38:03.023Z,21.30
2019-05-21T11:40:31.906Z,21.20
2019-05-21T11:43:00.660Z,21.10
2019-05-21T11:45:32.662Z,21.00
2019-05-21T11:47:59.788Z,20.80
2019-05-21T11:50:28.433Z,20.60
2019-05-21T11:52:57.134Z,20.20
2019-05-21T11:55:25.838Z,19.70
2019-05-21T11:57:54.502Z,19.20
2019-05-21T12:00:25.211Z,18.80
2019-05-21T12:02:53.993Z,18.40
2019-05-21T12:05:22.695Z,18.10
2019-05-21T12:07:51.477Z,18.00
2019-05-21T12:10:20.123Z,17.90
2019-05-21T12:12:48.896Z,17.90
2019-05-21T12:15:18.080Z,17.90
2019-05-21T12:17:46.762Z,18.10
2019-05-21T12:20:16.043Z,18.60
2019-05-21T12:22:44.832Z,19.10
2019-05-21T12:25:13.756Z,19.50
2019-05-21T12:27:42.385Z,19.70
2019-05-21T12:30:12.097Z,19.80
2019-05-21T12:32:40.841Z,19.80
2019-05-21T12:35:10.634Z,19.80
2019-05-21T12:37:39.350Z,20.00
2019-05-21T12:40:08.892Z,20.50
2019-05-21T12:42:37.578Z,21.10
2019-05-21T12:45:06.753Z,21.50
2019-05-21T12:47:41.791Z,22.10
2019-05-21T12:50:11.003Z,23.90
2019-05-21T12:52:39.631Z,25.80
2019-05-21T12:55:09.916Z,27.00
2019-05-21T12:57:38.630Z,28.20
2019-05-21T13:00:11.023Z,29.20
2019-05-21T13:02:39.781Z,29.20
2019-05-21T13:05:11.280Z,28.00
2019-05-21T13:07:38.915Z,26.50
2019-05-21T13:10:09.216Z,25.90
2019-05-21T13:12:37.925Z,25.80
2019-05-21T13:15:08.159Z,25.60
2019-05-21T13:17:36.821Z,25.20
2019-05-21T13:20:08.666Z,24.80
2019-05-21T13:22:37.647Z,24.50
2019-05-21T13:25:07.576Z,24.60
2019-05-21T13:27:36.263Z,25.00
2019-05-21T13:30:07.045Z,25.90
2019-05-21T13:32:35.751Z,27.10
2019-05-21T13:35:06.833Z,28.40
2019-05-21T13:37:35.670Z,29.00
2019-05-21T13:40:07.303Z,29.40
2019-05-21T13:42:36.422Z,29.30
2019-05-21T13:45:07.223Z,28.30
2019-05-21T13:47:35.943Z,27.40
2019-05-21T13:50:07.480Z,27.00
2019-05-21T13:52:36.087Z,26.70
2019-05-21T13:55:07.300Z,26.30
2019-05-21T13:57:36.061Z,25.90
2019-05-21T14:00:07.810Z,25.60
2019-05-21T14:02:36.613Z,25.20
2019-05-21T14:05:06.205Z,24.50
2019-05-21T14:07:34.894Z,23.80
2019-05-21T14:10:14.904Z,23.20
2019-05-21T14:12:35.986Z,22.90
2019-05-21T14:15:05.521Z,22.80
2019-05-21T14:17:34.177Z,22.70
2019-05-21T14:20:03.250Z,22.80
2019-05-21T14:22:36.214Z,22.80
2019-05-21T14:25:02.302Z,22.90
2019-05-21T14:27:43.705Z,23.00
2019-05-21T14:30:01.438Z,23.30
2019-05-21T14:32:30.136Z,23.50
2019-05-21T14:35:01.717Z,23.70
2019-05-21T14:37:29.234Z,23.60
2019-05-21T14:39:58.006Z,23.40
2019-05-21T14:42:26.774Z,23.20
2019-05-21T14:44:55.465Z,22.80
2019-05-21T14:47:24.149Z,22.60
2019-05-21T14:49:52.782Z,22.50
2019-05-21T14:52:21.452Z,22.40
2019-05-21T14:54:50.071Z,22.30
2019-05-21T14:57:18.804Z,22.30
2019-05-21T14:59:47.456Z,22.30
2019-05-21T15:02:16.065Z,22.30
2019-05-21T15:04:45.061Z,22.20
2019-05-21T15:07:14.004Z,22.10
2019-05-21T15:09:42.683Z,22.10
2019-05-21T15:12:12.851Z,22.00
2019-05-21T15:14:41.491Z,21.90
2019-05-21T15:17:10.290Z,21.80
2019-05-21T15:19:40.228Z,21.80
2019-05-21T15:22:08.938Z,21.80
2019-05-21T15:24:37.621Z,21.70
2019-05-21T15:27:07.180Z,21.70
2019-05-21T15:29:35.791Z,21.60
2019-05-21T15:32:04.664Z,21.60
2019-05-21T15:34:33.332Z,21.60
2019-05-21T15:37:01.995Z,21.60
2019-05-21T15:39:30.731Z,21.60
2019-05-21T15:41:59.368Z,21.60
2019-05-21T15:44:28.019Z,21.50
2019-05-21T15:46:56.696Z,21.40
2019-05-21T15:49:35.671Z,21.30
2019-05-21T15:51:55.816Z,21.30
2019-05-21T15:54:24.484Z,21.20
2019-05-21T15:56:53.180Z,21.20
2019-05-21T15:59:21.891Z,21.10
2019-05-21T16:01:50.663Z,21.00
2019-05-21T16:04:19.353Z,20.90
2019-05-21T16:06:47.975Z,20.80
2019-05-21T16:09:16.622Z,20.70
2019-05-21T16:11:45.270Z,20.40
2019-05-21T16:14:13.890Z,20.10
2019-05-21T16:16:42.513Z,19.80
2019-05-21T16:19:11.122Z,19.60
2019-05-21T16:21:39.823Z,19.40
2019-05-21T16:24:08.490Z,19.30
2019-05-21T16:26:37.095Z,19.10
2019-05-21T16:29:05.806Z,19.00
2019-05-21T16:31:34.429Z,19.00
2019-05-21T16:34:03.152Z,18.90
2019-05-21T16:36:31.765Z,18.90
2019-05-21T16:39:00.590Z,18.80
2019-05-21T16:41:43.553Z,18.80
2019-05-21T16:43:59.812Z,18.80
2019-05-21T16:46:28.470Z,18.80
2019-05-21T16:48:57.413Z,18.70
2019-05-21T16:51:28.085Z,18.60
2019-05-21T16:53:56.764Z,18.50
2019-05-21T16:56:25.537Z,18.50
2019-05-21T16:58:54.262Z,18.50
2019-05-21T17:01:24.437Z,18.40
2019-05-21T17:03:59.818Z,18.40
2019-05-21T17:06:23.623Z,18.30
2019-05-21T17:08:52.398Z,18.20
2019-05-21T17:11:21.097Z,18.10
2019-05-21T17:13:49.947Z,18.00
2019-05-21T17:16:18.668Z,18.00
2019-05-21T17:18:47.340Z,17.90
2019-05-21T17:21:16.080Z,18.00
2019-05-21T17:23:44.870Z,18.00
2019-05-21T17:26:13.687Z,17.90
2019-05-21T17:28:42.371Z,17.90
2019-05-21T17:31:11.283Z,17.90
2019-05-21T17:33:40.066Z,17.90
2019-05-21T17:36:08.779Z,17.80
2019-05-21T17:38:37.404Z,17.80
2019-05-21T17:41:06.092Z,17.80
2019-05-21T17:43:34.767Z,17.70
2019-05-21T17:46:03.434Z,17.70
2019-05-21T17:48:32.197Z,17.70
2019-05-21T17:51:00.883Z,17.60
2019-05-21T17:53:31.754Z,17.60
2019-05-21T17:56:00.947Z,17.60
2019-05-21T17:58:29.574Z,17.60
2019-05-21T18:00:59.907Z,17.50
2019-05-21T18:03:28.580Z,17.50
2019-05-21T18:05:58.262Z,17.50
2019-05-21T18:08:27.226Z,17.50
2019-05-21T18:10:55.996Z,17.50
2019-05-21T18:13:25.694Z,17.40
2019-05-21T18:15:55.358Z,17.40
2019-05-21T18:18:24.123Z,17.40
2019-05-21T18:20:53.270Z,17.40
2019-05-21T18:23:22.188Z,17.40
2019-05-21T18:25:51.058Z,17.40
2019-05-21T18:28:19.835Z,17.40
2019-05-21T18:30:48.561Z,17.40
2019-05-21T18:33:17.470Z,17.40
2019-05-21T18:35:46.157Z,17.40
2019-05-21T18:38:15.252Z,17.30
2019-05-21T18:40:43.988Z,17.30
2019-05-21T18:43:12.684Z,17.30
2019-05-21T18:45:41.577Z,17.30
2019-05-21T18:48:10.351Z,17.30
2019-05-21T18:50:39.098Z,17.30
2019-05-21T18:53:07.809Z,17.30
2019-05-21T18:55:36.473Z,17.30
2019-05-21T18:58:05.202Z,17.30
2019-05-21T19:00:34.787Z,17.30
2019-05-21T19:03:03.660Z,17.30
2019-05-21T19:05:32.366Z,17.30
2019-05-21T19:08:01.201Z,17.30
2019-05-21T19:10:29.950Z,17.30
2019-05-21T19:13:00.815Z,17.30
2019-05-21T19:15:29.486Z,17.30
2019-05-21T19:17:58.218Z,17.30
2019-05-21T19:20:27.044Z,17.20
2019-05-21T19:22:55.799Z,17.20
2019-05-21T19:25:24.432Z,17.20
2019-05-21T19:27:53.135Z,17.20
2019-05-21T19:30:22.312Z,17.20
2019-05-21T19:32:51.097Z,17.10
2019-05-21T19:35:19.840Z,17.10
2019-05-21T19:37:48.633Z,17.10
2019-05-21T19:40:17.658Z,17.10
2019-05-21T19:42:54.775Z,17.10
2019-05-21T19:45:17.595Z,17.10
2019-05-21T19:47:46.363Z,17.10
2019-05-21T19:50:14.997Z,17.00
2019-05-21T19:52:43.694Z,17.00
2019-05-21T19:55:12.616Z,17.00
2019-05-21T19:57:41.686Z,17.00
2019-05-21T20:00:12.062Z,17.00
2019-05-21T20:02:40.851Z,16.90
2019-05-21T20:05:10.328Z,16.90
2019-05-21T20:07:39.672Z,16.90
2019-05-21T20:10:09.048Z,16.90
2019-05-21T20:12:38.257Z,16.80
2019-05-21T20:15:08.024Z,16.80
2019-05-21T20:17:36.767Z,16.80
2019-05-21T20:20:07.597Z,16.80
2019-05-21T20:22:36.500Z,16.80
2019-05-21T20:25:06.475Z,16.70
2019-05-21T20:27:36.175Z,16.80
2019-05-21T20:30:12.834Z,16.70
2019-05-21T20:32:38.736Z,16.70
2019-05-21T20:35:08.949Z,16.70
2019-05-21T20:37:39.672Z,16.70
2019-05-21T20:40:11.843Z,16.70
2019-05-21T20:42:41.254Z,16.70
2019-05-21T20:45:12.730Z,16.70
2019-05-21T20:47:41.488Z,16.70
2019-05-21T20:50:12.627Z,16.70
2019-05-21T20:52:42.137Z,16.70
2019-05-21T20:55:10.876Z,16.60
2019-05-21T20:57:39.672Z,16.60
2019-05-21T21:00:11.039Z,16.60
2019-05-21T21:02:41.683Z,16.60
2019-05-21T21:05:11.484Z,16.50
2019-05-21T21:07:41.217Z,16.50
2019-05-21T21:10:12.128Z,16.50
2019-05-21T21:12:41.994Z,16.50
2019-05-21T21:15:12.470Z,16.50
2019-05-21T21:17:41.225Z,16.50
2019-05-21T21:20:11.800Z,16.40
2019-05-21T21:22:40.631Z,16.40
2019-05-21T21:25:10.210Z,16.40
2019-05-21T21:27:38.960Z,16.40
2019-05-21T21:30:08.313Z,16.40
2019-05-21T21:32:37.237Z,16.40
2019-05-21T21:35:06.655Z,16.40
2019-05-21T21:37:35.279Z,16.40
2019-05-21T21:40:07.263Z,16.40
2019-05-21T21:42:36.197Z,16.30
2019-05-21T21:45:06.984Z,16.30
2019-05-21T21:47:35.696Z,16.30
2019-05-21T21:50:06.544Z,16.30
2019-05-21T21:52:35.744Z,16.30
2019-05-21T21:55:06.167Z,16.30
2019-05-21T21:57:34.912Z,16.30
2019-05-21T22:00:06.515Z,16.30
2019-05-21T22:02:36.027Z,16.30
2019-05-21T22:05:08.269Z,16.30
2019-05-21T22:07:38.523Z,16.30
2019-05-21T22:10:08.541Z,16.20
2019-05-21T22:12:37.328Z,16.30
2019-05-21T22:15:07.821Z,16.30
2019-05-21T22:17:36.592Z,16.30
2019-05-21T22:20:08.329Z,16.30
2019-05-21T22:22:37.366Z,16.30
2019-05-21T22:25:06.935Z,16.30
2019-05-21T22:27:35.578Z,16.30
2019-05-21T22:30:05.682Z,16.30
2019-05-21T22:32:34.392Z,16.30
2019-05-21T22:35:03.191Z,16.30
2019-05-21T22:37:32.106Z,16.30
2019-05-21T22:40:00.899Z,16.30
2019-05-21T22:42:30.412Z,16.30
2019-05-21T22:45:08.138Z,16.30
2019-05-21T22:47:29.456Z,16.30
2019-05-21T22:49:58.166Z,16.30
2019-05-21T22:52:26.766Z,16.30
2019-05-21T22:54:55.375Z,16.30
2019-05-21T22:57:26.157Z,16.30
2019-05-21T22:59:54.570Z,16.30
2019-05-21T23:02:24.975Z,16.30
2019-05-21T23:04:54.070Z,16.30
2019-05-21T23:07:22.665Z,16.20
2019-05-21T23:09:51.347Z,16.30
2019-05-21T23:12:20.226Z,16.30
2019-05-21T23:14:49.261Z,16.30
2019-05-21T23:17:18.469Z,16.20
2019-05-21T23:19:50.402Z,16.20
2019-05-21T23:22:22.010Z,16.20
2019-05-21T23:24:50.684Z,16.10
2019-05-21T23:27:21.640Z,16.20
2019-05-21T23:29:50.856Z,16.10
2019-05-21T23:32:20.109Z,16.10
2019-05-21T23:34:49.550Z,16.10
2019-05-21T23:37:19.949Z,16.10
2019-05-21T23:39:51.882Z,16.10
2019-05-21T23:42:29.022Z,16.10
2019-05-21T23:44:51.192Z,16.10
2019-05-21T23:47:20.563Z,16.10
2019-05-21T23:49:49.427Z,16.10
2019-05-21T23:52:18.724Z,16.10
2019-05-21T23:54:47.322Z,16.10
2019-05-21T23:57:17.700Z,16.10
2019-05-21T23:59:46.312Z,16.20
